Portada
METAR-TAF:

METAR-TAF

Aeropuertos :

Poplar Bluff Municipal Airport

Poplar Bluff, Misuri, Estados Unidos

latitud: 36-46-14N, longitud: 090-19-20W, altitud: 100 m

Observación

El informe se hizo hace 54 minutos, a las 23:53 UTC
Viento 16 kt del norte-noreste
Temperatura 6°C
Humedad 56%
Presión 1025 hPa
Visibilidad: 16.1 km
Cielo cubierto a una altura de 11000 ft

METAR: KPOF 182353Z AUTO 02016KT 10SM OVC110 06/M02 A3028 RMK AO2 SLP257 60002 T00561022 10072 20056 53023 $

Hora: 18:47 (00:47 UTC)


TAF: falta

Observaciones y pronósticos meteorológicos de más de 4000 aeropuertos (mensajes METAR y TAF).

Los puntos amarillos y rojos representan las estaciones disponibles.

Ponga el ratón en el punto deseado para ver el nombre de la estación.

Haga clic para ver las observaciones y los pronósticos meteorológicos.

Para cambiar el mapa : haga clic en los botones verdes con una cruz de color negro para hacer un zoom, en el botón verde con un guión para alejar o en las flechas verdes para mapas adyacentes.


METAR-TAF: